Time;durP1;ratioP1;P1;durP2;ratioP2;P2;SDS_P1;SDS_P2;PMS_P1;PMS_P2;Temp;Humidity;BMP_temperature;BMP_pressure;BME280_temperature;BME280_humidity;BME280_pressure;Samples;Min_cycle;Max_cycle;Signal;HPM_P1;HPM_P2
2021/06/08 00:02:24;;;;;;;21.47;19.50;;;17.90;99.90;;;;;;5055583;28;20464;-73
2021/06/08 00:04:50;;;;;;;19.33;17.50;;;18.00;99.90;;;;;;5054754;28;20225;-73
2021/06/08 00:07:16;;;;;;;20.43;18.60;;;18.00;99.90;;;;;;5055071;28;20221;-72
2021/06/08 00:09:41;;;;;;;18.90;17.20;;;18.10;99.90;;;;;;5054961;28;20255;-72
2021/06/08 00:12:08;;;;;;;19.20;17.50;;;18.10;99.90;;;;;;5055430;28;20184;-73
2021/06/08 00:14:33;;;;;;;18.30;16.60;;;18.20;99.90;;;;;;5054489;28;20231;-73
2021/06/08 00:16:59;;;;;;;19.43;17.20;;;18.20;99.90;;;;;;5054863;28;20766;-73
2021/06/08 00:19:25;;;;;;;19.65;17.75;;;18.30;99.90;;;;;;5066707;28;20892;-71
2021/06/08 00:21:50;;;;;;;19.23;17.40;;;18.30;99.90;;;;;;5068156;28;20612;-73
2021/06/08 00:24:16;;;;;;;18.33;16.73;;;18.30;99.90;;;;;;5055295;28;20162;-73
2021/06/08 00:26:41;;;;;;;19.95;18.02;;;18.30;99.90;;;;;;5053715;28;20553;-72
2021/06/08 00:29:07;;;;;;;18.63;17.03;;;18.30;99.90;;;;;;5054645;28;20253;-73
2021/06/08 00:31:32;;;;;;;18.27;16.77;;;18.40;99.90;;;;;;5054773;28;20265;-72
2021/06/08 00:33:58;;;;;;;18.13;16.53;;;18.40;99.90;;;;;;5052975;28;20186;-73
2021/06/08 00:36:24;;;;;;;18.53;16.80;;;18.40;99.90;;;;;;5054554;28;20276;-72
2021/06/08 00:38:49;;;;;;;22.17;20.07;;;18.40;99.90;;;;;;5054987;28;20178;-72
2021/06/08 00:41:15;;;;;;;19.77;17.90;;;18.30;99.90;;;;;;5057932;28;20277;-72
2021/06/08 00:43:40;;;;;;;20.70;18.70;;;18.20;99.90;;;;;;5057753;28;20170;-72
2021/06/08 00:46:06;;;;;;;19.40;17.50;;;18.20;99.90;;;;;;5056255;28;20198;-72
2021/06/08 00:48:32;;;;;;;18.27;16.50;;;18.10;99.90;;;;;;5054232;28;20538;-71
2021/06/08 00:50:57;;;;;;;18.57;16.90;;;18.10;99.90;;;;;;5054301;28;20579;-72
2021/06/08 00:53:23;;;;;;;20.23;17.47;;;18.20;99.90;;;;;;5053634;28;20190;-72
2021/06/08 00:55:50;;;;;;;19.60;17.70;;;18.20;99.90;;;;;;5053924;28;20224;-73
2021/06/08 00:58:16;;;;;;;19.37;17.43;;;18.20;99.90;;;;;;5035785;28;20453;-72
2021/06/08 01:00:42;;;;;;;20.23;18.43;;;18.20;99.90;;;;;;5053731;28;20464;-73
2021/06/08 01:03:08;;;;;;;20.20;18.30;;;18.20;99.90;;;;;;5053441;28;20332;-72
2021/06/08 01:05:33;;;;;;;20.07;18.03;;;18.20;99.90;;;;;;5052351;28;20220;-72
2021/06/08 01:07:59;;;;;;;19.50;17.53;;;18.20;99.90;;;;;;5052661;28;20778;-72
2021/06/08 01:10:24;;;;;;;18.77;17.07;;;18.20;99.90;;;;;;5053490;28;20174;-72
2021/06/08 01:12:50;;;;;;;19.30;17.40;;;18.20;99.90;;;;;;5052279;28;20178;-72
2021/06/08 01:15:16;;;;;;;23.27;17.50;;;18.20;99.90;;;;;;5053374;28;20201;-72
2021/06/08 01:17:41;;;;;;;18.73;16.97;;;18.20;99.90;;;;;;5049257;28;20204;-72
2021/06/08 01:20:08;;;;;;;19.03;17.40;;;18.20;99.90;;;;;;5039298;28;20549;-72
2021/06/08 01:22:34;;;;;;;20.27;18.27;;;18.30;99.90;;;;;;5053290;28;20655;-73
2021/06/08 01:25:00;;;;;;;20.67;18.67;;;18.30;99.90;;;;;;5052537;28;20451;-72
2021/06/08 01:27:26;;;;;;;21.60;19.60;;;18.30;99.90;;;;;;5053277;28;20781;-72
2021/06/08 01:29:53;;;;;;;21.27;19.10;;;18.20;99.90;;;;;;5053153;28;20264;-73
2021/06/08 01:32:28;;;;;;;19.90;18.13;;;18.10;99.90;;;;;;5053609;28;20412;-72
2021/06/08 01:34:55;;;;;;;20.47;18.37;;;18.10;99.90;;;;;;5053833;28;20435;-72
2021/06/08 01:37:21;;;;;;;21.17;18.90;;;18.10;99.90;;;;;;5053454;28;20893;-72
2021/06/08 01:39:47;;;;;;;21.00;19.20;;;18.10;99.90;;;;;;5051799;28;20440;-72
2021/06/08 01:42:14;;;;;;;20.57;18.60;;;18.20;99.90;;;;;;5053077;28;20198;-72
2021/06/08 01:44:44;;;;;;;21.37;19.43;;;18.20;99.90;;;;;;5053090;28;20464;-72
2021/06/08 01:47:10;;;;;;;22.23;20.23;;;18.20;99.90;;;;;;5052643;28;20419;-72
2021/06/08 01:49:36;;;;;;;21.37;19.47;;;18.20;99.90;;;;;;5053534;28;20170;-72
2021/06/08 01:52:14;;;;;;;21.10;19.10;;;18.20;99.90;;;;;;5052820;28;20427;-72
2021/06/08 01:55:18;;;;;;;21.13;19.23;;;18.20;99.90;;;;;;5051797;28;20202;-72
2021/06/08 01:57:50;;;;;;;20.93;19.13;;;18.10;99.90;;;;;;5051206;28;20459;-71
2021/06/08 02:00:19;;;;;;;22.17;20.07;;;18.10;99.90;;;;;;5051042;28;20425;-72
2021/06/08 02:02:57;;;;;;;22.50;20.40;;;18.10;99.90;;;;;;5050647;28;20496;-72
2021/06/08 02:05:50;;;;;;;21.40;19.40;;;18.00;99.90;;;;;;5051214;28;20431;-72
2021/06/08 02:09:09;;;;;;;19.67;17.87;;;18.00;99.90;;;;;;5034474;28;20445;-71
2021/06/08 02:11:49;;;;;;;20.53;18.60;;;18.10;99.90;;;;;;4972349;28;20782;-71
2021/06/08 02:14:26;;;;;;;21.10;19.00;;;18.00;99.90;;;;;;5041754;28;20650;-72
2021/06/08 02:17:23;;;;;;;20.33;18.53;;;18.00;99.90;;;;;;5051005;28;20423;-72
2021/06/08 02:19:51;;;;;;;20.92;18.92;;;18.00;99.90;;;;;;5050205;28;20438;-72
2021/06/08 02:22:22;;;;;;;21.37;19.37;;;18.00;99.90;;;;;;5051530;28;20209;-72
2021/06/08 02:24:48;;;;;;;21.40;19.10;;;18.00;99.90;;;;;;5051166;28;20938;-72
2021/06/08 02:27:15;;;;;;;21.70;19.73;;;18.00;99.90;;;;;;5051890;28;20401;-72
2021/06/08 02:29:45;;;;;;;21.50;19.57;;;18.00;99.90;;;;;;5050788;28;20531;-72
2021/06/08 02:32:11;;;;;;;22.13;20.17;;;18.00;99.90;;;;;;5054430;28;20424;-72
2021/06/08 02:34:38;;;;;;;22.93;20.47;;;18.00;99.90;;;;;;5055902;28;20906;-72
2021/06/08 02:37:05;;;;;;;22.80;20.57;;;18.00;99.90;;;;;;5057477;28;20178;-72
2021/06/08 02:39:32;;;;;;;24.30;22.00;;;17.90;99.90;;;;;;5057454;28;20478;-72
2021/06/08 02:41:59;;;;;;;23.90;21.50;;;17.80;99.90;;;;;;5053210;28;20539;-72
2021/06/08 02:44:26;;;;;;;25.17;22.87;;;17.70;99.90;;;;;;5052599;28;20888;-72
2021/06/08 02:46:54;;;;;;;26.00;23.50;;;17.80;99.90;;;;;;5052657;28;20424;-72
2021/06/08 02:49:21;;;;;;;24.80;22.40;;;17.70;99.90;;;;;;5053011;28;20807;-73
2021/06/08 02:51:47;;;;;;;21.73;19.73;;;17.70;99.90;;;;;;5055832;28;20454;-72
2021/06/08 02:54:15;;;;;;;21.60;19.50;;;17.70;99.90;;;;;;5056392;28;20413;-73
2021/06/08 02:56:42;;;;;;;25.40;22.90;;;17.70;99.90;;;;;;5055279;28;20440;-73
2021/06/08 02:59:08;;;;;;;24.90;22.50;;;17.70;99.90;;;;;;5055895;28;20467;-73
2021/06/08 03:01:41;;;;;;;26.47;23.83;;;17.60;99.90;;;;;;5054814;28;20547;-72
2021/06/08 03:04:08;;;;;;;27.23;24.40;;;17.70;99.90;;;;;;5056145;28;20415;-72
2021/06/08 03:06:38;;;;;;;25.87;23.30;;;17.60;99.90;;;;;;5056368;28;20427;-72
2021/06/08 03:09:10;;;;;;;30.33;27.20;;;17.60;99.90;;;;;;5071188;28;20416;-70
2021/06/08 03:11:39;;;;;;;30.70;27.73;;;17.50;99.90;;;;;;5065825;28;20444;-72
2021/06/08 03:14:11;;;;;;;28.60;24.03;;;17.60;99.90;;;;;;5056091;28;20405;-72
2021/06/08 03:16:40;;;;;;;25.20;22.83;;;17.60;99.90;;;;;;5056104;28;20423;-72
2021/06/08 03:19:09;;;;;;;26.67;24.07;;;17.60;99.90;;;;;;5056531;28;20470;-72
2021/06/08 03:21:39;;;;;;;25.60;23.00;;;17.60;99.90;;;;;;5055924;28;20448;-72
2021/06/08 03:24:07;;;;;;;25.50;22.90;;;17.60;99.90;;;;;;5054134;28;20490;-73
2021/06/08 03:26:35;;;;;;;26.60;23.80;;;17.60;99.90;;;;;;5056087;28;20848;-73
2021/06/08 03:29:06;;;;;;;26.07;23.50;;;17.70;99.90;;;;;;5055941;28;20413;-72
2021/06/08 03:31:34;;;;;;;27.10;24.40;;;17.70;99.90;;;;;;5056310;28;20441;-70
2021/06/08 03:34:00;;;;;;;26.87;24.20;;;17.70;99.90;;;;;;5075964;28;20413;-70
2021/06/08 03:36:26;;;;;;;27.43;24.77;;;17.80;99.90;;;;;;5060355;28;20530;-72
2021/06/08 03:38:53;;;;;;;27.13;24.33;;;17.70;99.90;;;;;;5055585;28;20462;-72
2021/06/08 03:41:19;;;;;;;27.80;25.20;;;17.70;99.90;;;;;;5055370;28;20462;-72
2021/06/08 03:43:46;;;;;;;29.20;26.10;;;17.70;99.90;;;;;;5055127;28;20408;-72
2021/06/08 03:46:11;;;;;;;26.03;23.53;;;17.70;99.90;;;;;;5055146;28;20439;-72
2021/06/08 03:48:37;;;;;;;27.20;24.40;;;17.70;99.90;;;;;;5055494;28;20429;-72
2021/06/08 03:51:04;;;;;;;26.70;23.90;;;17.80;99.90;;;;;;5055408;28;20261;-72
2021/06/08 03:53:30;;;;;;;26.93;24.27;;;17.80;99.90;;;;;;5038376;28;20422;-73
2021/06/08 03:55:55;;;;;;;26.07;23.70;;;17.90;99.90;;;;;;5045287;28;20490;-72
2021/06/08 03:58:21;;;;;;;26.90;24.17;;;17.90;99.90;;;;;;5047716;28;20206;-72
2021/06/08 04:00:54;;;;;;;28.17;25.17;;;17.90;99.90;;;;;;5035176;28;20171;-72
2021/06/08 04:03:21;;;;;;;28.93;25.30;;;17.90;99.90;;;;;;5048932;28;20847;-72
2021/06/08 04:05:47;;;;;;;28.00;25.30;;;17.80;99.90;;;;;;5054626;28;20420;-73
2021/06/08 04:08:13;;;;;;;27.07;24.37;;;17.80;99.90;;;;;;5055194;28;20507;-72
2021/06/08 04:10:39;;;;;;;26.53;23.97;;;17.90;99.90;;;;;;5054933;28;20542;-72
2021/06/08 04:13:06;;;;;;;27.87;25.17;;;17.90;99.90;;;;;;5054397;28;20223;-72
2021/06/08 04:15:33;;;;;;;27.00;24.30;;;17.90;99.90;;;;;;5054751;28;20445;-73
2021/06/08 04:17:59;;;;;;;28.83;25.97;;;17.90;99.90;;;;;;5055057;28;20506;-72
2021/06/08 04:20:28;;;;;;;27.70;24.93;;;18.00;99.90;;;;;;5054920;28;20444;-72
2021/06/08 04:22:56;;;;;;;27.63;24.83;;;18.00;99.90;;;;;;5053990;28;20490;-73
2021/06/08 04:25:23;;;;;;;27.93;25.10;;;18.00;99.90;;;;;;5054876;28;20451;-72
2021/06/08 04:27:49;;;;;;;25.90;23.43;;;18.10;99.90;;;;;;5055199;28;20409;-72
2021/06/08 04:30:15;;;;;;;31.50;28.60;;;18.10;99.90;;;;;;5053604;28;20967;-72
2021/06/08 04:32:42;;;;;;;29.77;26.87;;;18.10;99.90;;;;;;5054002;28;20228;-72
2021/06/08 04:35:09;;;;;;;28.70;25.80;;;18.10;99.90;;;;;;5054096;28;20530;-72
2021/06/08 04:37:38;;;;;;;27.43;24.63;;;18.10;99.90;;;;;;5054799;28;20401;-72
2021/06/08 04:40:05;;;;;;;28.13;25.43;;;18.20;99.90;;;;;;5055148;28;20717;-72
2021/06/08 04:42:31;;;;;;;26.83;24.17;;;18.20;99.90;;;;;;5055121;28;20448;-72
2021/06/08 04:44:56;;;;;;;28.80;25.90;;;18.30;99.90;;;;;;5055256;28;20483;-72
2021/06/08 04:47:23;;;;;;;28.00;25.23;;;18.30;99.90;;;;;;5058059;28;20220;-72
2021/06/08 04:49:53;;;;;;;28.80;26.00;;;18.40;99.90;;;;;;5057973;28;20163;-72
2021/06/08 04:52:18;;;;;;;31.57;26.33;;;18.30;99.90;;;;;;5053188;28;20464;-72
2021/06/08 04:54:44;;;;;;;31.93;28.63;;;18.40;99.90;;;;;;5052263;28;20810;-72
2021/06/08 04:57:12;;;;;;;29.80;26.90;;;18.30;99.90;;;;;;5056494;28;20251;-72
2021/06/08 05:00:03;;;;;;;30.10;27.07;;;18.40;99.90;;;;;;5057872;28;20585;-72
2021/06/08 05:02:34;;;;;;;31.90;28.57;;;18.40;99.90;;;;;;5048166;28;20472;-70
2021/06/08 05:05:18;;;;;;;30.57;27.37;;;18.40;99.90;;;;;;5046465;28;20441;-72
2021/06/08 05:08:13;;;;;;;30.23;27.27;;;18.40;99.90;;;;;;5042929;28;20869;-72
2021/06/08 05:10:48;;;;;;;32.90;29.67;;;18.50;99.90;;;;;;5035610;28;20919;-72
2021/06/08 05:13:15;;;;;;;32.60;29.50;;;18.50;99.90;;;;;;5044006;28;20198;-72
2021/06/08 05:15:43;;;;;;;32.87;29.33;;;18.50;99.90;;;;;;5045345;28;20487;-72
2021/06/08 05:18:13;;;;;;;31.87;28.77;;;18.50;99.90;;;;;;5053479;28;20425;-73
2021/06/08 05:20:41;;;;;;;32.50;29.20;;;18.50;99.90;;;;;;5053991;28;20396;-72
2021/06/08 05:23:07;;;;;;;33.07;29.73;;;18.50;99.90;;;;;;5053384;28;20456;-73
2021/06/08 05:25:33;;;;;;;30.60;27.47;;;18.50;99.90;;;;;;5053737;28;20480;-73
2021/06/08 05:28:00;;;;;;;32.83;29.33;;;18.50;99.90;;;;;;5049178;28;20435;-74
2021/06/08 05:30:26;;;;;;;33.73;30.23;;;18.50;99.90;;;;;;5044533;28;20273;-73
2021/06/08 05:32:52;;;;;;;33.00;29.60;;;18.50;99.90;;;;;;5044599;28;20461;-72
2021/06/08 05:35:28;;;;;;;36.77;32.00;;;18.50;99.90;;;;;;5041083;28;20916;-73
2021/06/08 05:38:01;;;;;;;33.27;29.90;;;18.60;99.90;;;;;;5050728;28;20978;-73
2021/06/08 05:40:27;;;;;;;35.33;31.30;;;18.60;99.90;;;;;;5055606;28;20436;-73
2021/06/08 05:42:52;;;;;;;34.20;30.53;;;18.60;99.90;;;;;;5068831;28;20451;-73
2021/06/08 05:45:18;;;;;;;34.70;31.00;;;18.60;99.90;;;;;;5064168;28;20474;-73
2021/06/08 05:47:43;;;;;;;34.40;30.60;;;18.60;99.90;;;;;;5050543;28;20647;-72
2021/06/08 05:50:10;;;;;;;33.30;30.00;;;18.60;99.90;;;;;;5062493;28;20642;-73
2021/06/08 05:52:39;;;;;;;35.30;30.77;;;18.70;99.90;;;;;;5066125;28;20181;-73
2021/06/08 05:55:06;;;;;;;34.67;31.03;;;18.70;99.90;;;;;;5057739;28;20448;-72
2021/06/08 05:57:32;;;;;;;34.87;31.17;;;18.70;99.90;;;;;;5069136;28;20936;-71
2021/06/08 06:00:02;;;;;;;34.37;30.80;;;18.60;99.90;;;;;;5068972;28;20550;-73
2021/06/08 06:02:29;;;;;;;34.87;31.13;;;18.60;99.90;;;;;;5054911;28;20561;-73
2021/06/08 06:04:56;;;;;;;32.83;29.43;;;18.70;99.90;;;;;;5069598;28;20652;-74
2021/06/08 06:07:23;;;;;;;30.90;27.50;;;18.80;99.90;;;;;;5070370;28;20943;-72
2021/06/08 06:09:48;;;;;;;35.20;31.50;;;18.80;99.90;;;;;;5064675;28;20518;-73
2021/06/08 06:12:15;;;;;;;33.10;29.67;;;18.90;99.90;;;;;;5061053;28;20543;-73
2021/06/08 06:14:41;;;;;;;33.07;29.83;;;18.90;99.90;;;;;;5065164;28;20201;-75
2021/06/08 06:17:07;;;;;;;33.97;30.57;;;19.00;99.90;;;;;;5074071;28;20511;-74
2021/06/08 06:19:35;;;;;;;32.43;29.00;;;19.00;99.90;;;;;;5074689;28;20586;-74
2021/06/08 06:22:00;;;;;;;35.00;29.93;;;19.10;99.90;;;;;;5082211;28;20466;-75
2021/06/08 06:24:28;;;;;;;36.65;32.95;;;19.10;99.90;;;;;;5090748;28;20438;-75
2021/06/08 06:26:54;;;;;;;32.03;28.93;;;19.10;99.90;;;;;;5078767;28;20634;-74
2021/06/08 06:29:21;;;;;;;31.90;28.60;;;19.10;99.90;;;;;;5072842;28;20537;-74
2021/06/08 06:31:48;;;;;;;33.30;29.90;;;19.20;99.90;;;;;;5073889;28;20472;-73
2021/06/08 06:34:18;;;;;;;33.37;30.00;;;19.20;99.90;;;;;;5060386;28;20452;-73
2021/06/08 06:36:46;;;;;;;31.00;27.90;;;19.30;99.90;;;;;;5071913;28;20451;-73
2021/06/08 06:39:22;;;;;;;32.33;29.03;;;19.30;99.90;;;;;;5073007;28;20552;-74
2021/06/08 06:41:50;;;;;;;31.77;28.43;;;19.50;99.90;;;;;;5075506;28;21293;-74
2021/06/08 06:44:18;;;;;;;30.73;27.53;;;19.50;99.90;;;;;;5068547;28;20498;-74
2021/06/08 06:46:46;;;;;;;29.50;26.50;;;19.60;99.90;;;;;;5079905;28;20447;-75
2021/06/08 06:49:11;;;;;;;30.23;27.30;;;19.70;99.90;;;;;;5095603;28;20423;-74
2021/06/08 06:51:38;;;;;;;32.10;27.70;;;19.80;99.90;;;;;;5079913;28;20435;-74
2021/06/08 06:54:04;;;;;;;30.40;27.50;;;19.90;99.90;;;;;;5072920;28;20292;-72
2021/06/08 06:56:30;;;;;;;29.57;26.50;;;20.10;99.90;;;;;;5070073;28;20807;-72
2021/06/08 06:58:57;;;;;;;33.70;25.53;;;20.30;99.90;;;;;;5074079;28;20463;-73
2021/06/08 07:01:24;;;;;;;27.87;24.27;;;20.40;99.90;;;;;;5070794;28;20244;-73
2021/06/08 07:03:56;;;;;;;28.03;25.13;;;20.60;99.90;;;;;;5063886;28;20416;-73
2021/06/08 07:06:23;;;;;;;26.90;24.30;;;20.70;99.90;;;;;;5058599;28;20809;-74
2021/06/08 07:08:54;;;;;;;25.13;22.60;;;20.90;99.90;;;;;;5058734;28;20428;-73
2021/06/08 07:11:21;;;;;;;24.63;22.37;;;20.90;99.90;;;;;;5073289;28;20419;-73
2021/06/08 07:13:47;;;;;;;25.03;22.37;;;21.10;99.90;;;;;;5073086;28;21159;-73
2021/06/08 07:16:17;;;;;;;24.70;22.40;;;21.10;99.90;;;;;;5064377;28;20455;-74
2021/06/08 07:18:46;;;;;;;25.60;22.90;;;21.20;99.90;;;;;;5053224;28;20943;-73
2021/06/08 07:21:14;;;;;;;23.37;21.10;;;21.30;99.90;;;;;;5072992;28;20412;-74
2021/06/08 07:23:40;;;;;;;22.40;20.13;;;21.30;99.90;;;;;;5072739;28;20774;-73
2021/06/08 07:26:06;;;;;;;20.90;18.80;;;21.10;99.90;;;;;;5071218;28;20435;-73
2021/06/08 07:28:32;;;;;;;21.53;19.43;;;21.20;99.90;;;;;;5068124;28;20662;-73
2021/06/08 07:30:59;;;;;;;19.17;17.37;;;21.20;99.90;;;;;;5072784;28;20195;-73
2021/06/08 07:33:25;;;;;;;17.50;15.70;;;21.30;99.90;;;;;;5073076;28;20494;-74
2021/06/08 07:36:03;;;;;;;17.43;15.73;;;21.30;99.90;;;;;;5069450;28;21155;-73
2021/06/08 07:38:36;;;;;;;21.10;19.10;;;21.30;99.90;;;;;;5049823;28;20206;-73
2021/06/08 07:41:10;;;;;;;18.27;16.63;;;21.10;99.90;;;;;;5054147;28;20427;-74
2021/06/08 07:43:46;;;;;;;19.13;17.23;;;20.90;99.90;;;;;;5064866;28;21187;-73
2021/06/08 07:46:18;;;;;;;19.75;17.85;;;20.80;99.90;;;;;;5065637;28;20400;-73
2021/06/08 07:48:47;;;;;;;16.73;15.13;;;20.80;99.90;;;;;;5069861;28;20722;-73
2021/06/08 07:51:13;;;;;;;18.00;16.20;;;20.90;99.90;;;;;;5072781;28;20473;-73
2021/06/08 07:53:39;;;;;;;17.30;15.60;;;21.00;99.90;;;;;;5070898;28;20502;-73
2021/06/08 07:56:05;;;;;;;18.87;17.03;;;20.90;99.90;;;;;;5072397;28;20186;-73
2021/06/08 07:58:31;;;;;;;18.20;16.37;;;21.00;99.90;;;;;;5072280;28;20203;-74
2021/06/08 08:00:59;;;;;;;17.30;15.60;;;21.00;99.90;;;;;;5071777;28;21219;-72
2021/06/08 08:03:30;;;;;;;18.63;16.80;;;21.10;99.90;;;;;;5064949;28;20209;-73
2021/06/08 08:06:05;;;;;;;15.50;13.80;;;21.10;99.90;;;;;;5063012;28;20450;-73
2021/06/08 08:08:32;;;;;;;15.97;14.37;;;21.20;99.90;;;;;;5072028;28;20418;-73
2021/06/08 08:10:58;;;;;;;15.37;13.97;;;21.20;99.90;;;;;;5072371;28;20414;-73
2021/06/08 08:13:31;;;;;;;16.53;14.90;;;21.30;99.90;;;;;;5071672;28;20411;-74
2021/06/08 08:15:57;;;;;;;15.50;14.10;;;21.20;99.90;;;;;;5060796;28;20867;-72
2021/06/08 08:18:24;;;;;;;19.87;15.50;;;21.20;99.90;;;;;;5067341;28;20446;-74
2021/06/08 08:20:55;;;;;;;16.77;14.47;;;21.20;99.90;;;;;;5065765;28;20558;-73
2021/06/08 08:23:24;;;;;;;17.07;15.20;;;21.10;99.90;;;;;;5062375;28;20557;-74
2021/06/08 08:25:50;;;;;;;16.27;14.57;;;21.10;99.90;;;;;;5069771;28;20447;-72
2021/06/08 08:28:16;;;;;;;17.50;15.70;;;21.00;99.90;;;;;;5070438;28;20482;-73
2021/06/08 08:30:42;;;;;;;16.20;14.60;;;21.10;99.90;;;;;;5070438;28;20268;-73
2021/06/08 08:33:08;;;;;;;15.87;14.27;;;21.30;99.90;;;;;;5073176;28;20238;-73
2021/06/08 08:35:36;;;;;;;15.70;13.60;;;21.30;99.90;;;;;;5065266;28;20206;-73
2021/06/08 08:38:02;;;;;;;19.07;16.70;;;21.50;99.90;;;;;;5064983;28;20440;-73
2021/06/08 08:40:28;;;;;;;17.53;15.07;;;21.50;99.90;;;;;;5072737;28;20407;-73
2021/06/08 08:42:53;;;;;;;16.27;14.60;;;21.40;99.90;;;;;;5071656;28;20472;-71
2021/06/08 08:45:20;;;;;;;16.10;14.43;;;21.60;99.90;;;;;;5071390;28;20232;-72
2021/06/08 08:47:46;;;;;;;16.23;14.63;;;21.70;99.90;;;;;;5073222;28;20533;-72
2021/06/08 08:50:17;;;;;;;17.73;16.07;;;21.80;99.90;;;;;;5069238;28;20423;-73
2021/06/08 08:52:45;;;;;;;17.03;15.47;;;21.90;99.90;;;;;;5052102;28;20198;-73
2021/06/08 08:55:12;;;;;;;18.00;16.27;;;21.90;99.90;;;;;;5053380;28;20462;-74
2021/06/08 08:57:42;;;;;;;14.80;13.40;;;21.70;99.90;;;;;;5043084;28;20456;-73
2021/06/08 09:00:08;;;;;;;16.23;14.53;;;21.60;99.90;;;;;;5066883;28;20775;-73
2021/06/08 09:02:35;;;;;;;15.00;13.60;;;21.80;99.90;;;;;;5059900;28;20496;-73
2021/06/08 09:05:01;;;;;;;14.87;13.57;;;21.60;99.90;;;;;;5044782;28;20497;-74
2021/06/08 09:07:27;;;;;;;15.65;13.82;;;21.70;99.90;;;;;;5070667;28;20450;-72
2021/06/08 09:09:53;;;;;;;15.30;13.90;;;21.90;99.90;;;;;;5051724;28;20212;-73
2021/06/08 09:12:20;;;;;;;15.00;13.60;;;22.00;99.90;;;;;;5049394;28;20235;-71
2021/06/08 09:14:45;;;;;;;14.57;13.23;;;22.10;99.60;;;;;;5036131;28;20526;-72
2021/06/08 09:17:15;;;;;;;15.07;13.67;;;22.30;99.60;;;;;;5046268;28;20408;-73
2021/06/08 09:19:42;;;;;;;14.47;13.10;;;22.30;99.00;;;;;;5056382;28;20173;-73
2021/06/08 09:22:10;;;;;;;13.27;12.07;;;22.10;99.10;;;;;;5061076;28;20456;-74
2021/06/08 09:24:36;;;;;;;12.83;11.70;;;21.90;99.40;;;;;;5062461;28;20429;-74
2021/06/08 09:27:07;;;;;;;13.97;12.60;;;21.90;99.10;;;;;;5065452;28;20393;-74
2021/06/08 09:29:44;;;;;;;14.60;13.30;;;21.80;99.30;;;;;;5066343;28;20454;-74
2021/06/08 09:32:26;;;;;;;13.20;12.00;;;21.90;99.20;;;;;;5069010;28;20922;-73
2021/06/08 09:34:54;;;;;;;11.93;10.93;;;22.00;99.20;;;;;;5067592;28;20424;-72
2021/06/08 09:37:38;;;;;;;11.57;10.37;;;22.00;98.40;;;;;;5076496;28;20424;-73
2021/06/08 09:40:19;;;;;;;11.37;10.30;;;22.20;98.20;;;;;;5070729;28;20481;-73
2021/06/08 09:42:47;;;;;;;11.63;10.63;;;22.30;98.50;;;;;;5054350;28;20510;-72
2021/06/08 09:45:20;;;;;;;12.80;11.60;;;22.50;98.60;;;;;;5053025;28;20440;-72
2021/06/08 09:48:00;;;;;;;11.55;10.55;;;22.60;98.50;;;;;;5053705;28;20804;-72
2021/06/08 09:50:40;;;;;;;13.00;11.70;;;22.70;98.30;;;;;;5055533;28;20174;-72
2021/06/08 09:53:26;;;;;;;14.53;13.23;;;22.70;98.10;;;;;;5056544;28;20416;-72
2021/06/08 09:56:02;;;;;;;12.50;10.93;;;22.80;97.90;;;;;;5058207;28;20435;-72
2021/06/08 09:58:29;;;;;;;13.33;12.13;;;23.00;98.00;;;;;;5069815;28;20444;-71
2021/06/08 10:01:04;;;;;;;13.80;12.50;;;23.00;97.80;;;;;;5069419;28;20412;-71
2021/06/08 10:03:34;;;;;;;12.73;11.60;;;23.00;97.50;;;;;;5071902;28;20527;-72
2021/06/08 10:06:15;;;;;;;12.30;11.03;;;23.00;97.60;;;;;;5062124;28;20432;-72
2021/06/08 10:09:05;;;;;;;12.90;11.03;;;23.10;96.60;;;;;;5043341;28;20432;-73
2021/06/08 10:11:33;;;;;;;11.70;10.57;;;23.00;96.30;;;;;;5043933;28;20417;-72
2021/06/08 10:14:13;;;;;;;12.73;11.53;;;23.20;96.60;;;;;;5057642;28;20909;-73
2021/06/08 10:16:39;;;;;;;11.87;10.77;;;23.30;96.10;;;;;;5056051;28;21418;-72
2021/06/08 10:19:06;;;;;;;14.20;12.83;;;23.40;96.20;;;;;;5058498;28;20409;-73
2021/06/08 10:21:48;;;;;;;12.80;11.53;;;23.40;96.40;;;;;;5057928;28;20491;-72
2021/06/08 10:24:16;;;;;;;16.13;14.53;;;23.50;96.40;;;;;;5062878;28;20575;-72
2021/06/08 10:26:51;;;;;;;15.20;13.90;;;23.60;96.20;;;;;;5056216;28;20467;-73
2021/06/08 10:29:30;;;;;;;13.90;12.50;;;23.50;96.30;;;;;;5057819;28;20522;-73
2021/06/08 10:31:59;;;;;;;17.30;15.60;;;23.50;95.70;;;;;;5059051;28;20412;-73
2021/06/08 10:34:28;;;;;;;14.37;13.07;;;23.50;95.50;;;;;;5056038;28;20491;-72
2021/06/08 10:36:56;;;;;;;14.40;12.97;;;23.50;95.90;;;;;;5058223;28;20424;-73
2021/06/08 10:39:29;;;;;;;15.07;13.57;;;23.70;95.40;;;;;;5057633;28;20417;-72
2021/06/08 10:41:58;;;;;;;17.37;15.67;;;23.70;95.50;;;;;;5057379;28;20452;-72
2021/06/08 10:44:26;;;;;;;17.57;16.07;;;23.60;95.00;;;;;;5055997;28;20431;-72
2021/06/08 10:46:56;;;;;;;16.80;15.33;;;23.40;95.40;;;;;;5057136;28;20937;-72
2021/06/08 10:49:39;;;;;;;16.97;15.57;;;23.20;95.80;;;;;;5055953;28;20888;-72
2021/06/08 10:52:11;;;;;;;16.67;15.07;;;22.90;96.40;;;;;;5058183;28;20531;-73
2021/06/08 10:54:41;;;;;;;15.97;14.47;;;23.00;96.70;;;;;;5057135;28;20408;-72
2021/06/08 10:57:15;;;;;;;16.37;14.87;;;22.80;96.50;;;;;;5057031;28;20409;-73
2021/06/08 10:59:43;;;;;;;16.40;14.97;;;22.90;96.70;;;;;;5055743;28;20428;-72
2021/06/08 11:02:09;;;;;;;15.77;14.07;;;22.80;96.50;;;;;;5057003;28;20965;-71
2021/06/08 11:04:55;;;;;;;14.57;13.17;;;22.80;96.50;;;;;;5057045;28;20410;-73
2021/06/08 11:07:43;;;;;;;14.93;13.00;;;23.20;96.10;;;;;;5058662;28;20491;-73
2021/06/08 11:10:30;;;;;;;12.32;11.23;;;23.50;95.60;;;;;;5067196;28;20491;-72
2021/06/08 11:13:07;;;;;;;12.73;11.43;;;23.80;93.80;;;;;;5070928;28;20178;-73
2021/06/08 11:15:35;;;;;;;13.47;12.37;;;23.90;92.80;;;;;;5057020;28;20757;-72
2021/06/08 11:18:00;;;;;;;11.73;10.63;;;24.00;92.90;;;;;;5056177;28;20424;-72
2021/06/08 11:20:27;;;;;;;15.00;13.67;;;24.20;93.10;;;;;;5055194;28;20174;-71
2021/06/08 11:22:55;;;;;;;14.83;13.60;;;24.10;92.80;;;;;;5064036;28;20580;-74
2021/06/08 11:25:43;;;;;;;13.10;12.00;;;24.00;93.20;;;;;;5076264;28;20808;-72
2021/06/08 11:28:13;;;;;;;12.60;11.43;;;23.90;93.20;;;;;;5075966;28;20453;-72
2021/06/08 11:30:42;;;;;;;13.53;12.33;;;23.90;93.00;;;;;;5076283;28;20493;-72
2021/06/08 11:33:25;;;;;;;14.00;12.90;;;23.90;92.80;;;;;;5075734;28;20404;-72
2021/06/08 11:35:50;;;;;;;12.40;11.40;;;23.50;93.10;;;;;;5075937;28;20440;-71
2021/06/08 11:38:30;;;;;;;12.53;11.43;;;23.50;93.40;;;;;;5075718;28;20414;-72
2021/06/08 11:41:01;;;;;;;13.33;12.13;;;23.50;93.70;;;;;;5076246;28;20153;-73
2021/06/08 11:43:29;;;;;;;15.00;13.60;;;23.50;93.50;;;;;;5075578;28;20456;-73
2021/06/08 11:46:18;;;;;;;14.30;12.90;;;23.50;93.50;;;;;;5075972;28;20473;-73
2021/06/08 11:48:46;;;;;;;14.73;13.37;;;23.40;93.70;;;;;;5076832;28;20722;-72
2021/06/08 11:51:15;;;;;;;13.60;12.40;;;23.10;93.60;;;;;;5075593;28;20407;-72
2021/06/08 11:54:04;;;;;;;13.30;12.10;;;22.90;93.80;;;;;;5075256;28;20792;-73
2021/06/08 11:56:49;;;;;;;14.57;13.27;;;22.80;94.00;;;;;;5075325;28;20431;-73
2021/06/08 11:59:18;;;;;;;13.50;12.30;;;22.70;94.00;;;;;;5076053;28;20418;-72
2021/06/08 12:01:47;;;;;;;14.10;12.80;;;22.80;94.10;;;;;;5075374;28;20870;-71
2021/06/08 12:04:14;;;;;;;13.33;12.23;;;22.80;94.00;;;;;;5075586;28;20881;-72
2021/06/08 12:06:54;;;;;;;12.77;11.67;;;22.80;94.10;;;;;;5075267;28;20449;-71
2021/06/08 12:09:21;;;;;;;13.50;12.07;;;22.90;93.40;;;;;;5074044;28;20408;-71
2021/06/08 12:11:48;;;;;;;12.83;11.63;;;23.10;92.80;;;;;;5074963;28;20538;-72
2021/06/08 12:14:14;;;;;;;11.07;10.17;;;23.20;92.10;;;;;;5074948;28;20431;-72
2021/06/08 12:16:39;;;;;;;11.47;10.37;;;23.40;92.00;;;;;;5075077;28;20427;-72
2021/06/08 12:19:08;;;;;;;10.07;9.07;;;23.70;92.00;;;;;;5074928;28;20174;-73
2021/06/08 12:21:34;;;;;;;11.00;10.10;;;24.00;92.00;;;;;;5074924;28;20250;-72
2021/06/08 12:24:00;;;;;;;10.67;9.60;;;24.10;91.30;;;;;;5057632;28;20444;-71
2021/06/08 12:26:26;;;;;;;11.73;10.13;;;24.30;91.10;;;;;;5054965;28;20186;-73
2021/06/08 12:29:02;;;;;;;12.70;10.57;;;24.20;90.90;;;;;;5055268;28;20279;-72
2021/06/08 12:31:28;;;;;;;10.70;9.70;;;24.30;90.40;;;;;;5055092;28;20401;-72
2021/06/08 12:33:54;;;;;;;12.00;10.80;;;24.10;90.80;;;;;;5054563;28;20463;-72
2021/06/08 12:36:20;;;;;;;12.53;11.40;;;23.90;90.90;;;;;;5055471;28;20433;-72
2021/06/08 12:38:47;;;;;;;12.33;11.10;;;23.60;90.90;;;;;;5053950;28;20818;-73
2021/06/08 12:41:13;;;;;;;14.10;12.83;;;23.50;91.10;;;;;;5055888;28;20163;-72